createdAt,value
2016-06-08T12:31:19.667Z,23.52
2016-06-08T12:32:04.608Z,23.47
2016-06-08T12:33:05.235Z,23.41
2016-06-08T12:34:04.644Z,23.5
2016-06-08T12:35:05.553Z,23.41
2016-06-08T12:36:05.431Z,23.4
2016-06-08T12:37:04.434Z,23.4
2016-06-08T12:38:05.826Z,23.42
2016-06-08T12:39:04.485Z,23.37
2016-06-08T12:40:04.473Z,23.42
2016-06-08T12:41:04.225Z,23.37
2016-06-08T12:42:04.681Z,23.42
2016-06-08T12:43:04.621Z,23.48
2016-06-08T12:44:04.249Z,23.55
2016-06-08T12:45:04.720Z,23.5
2016-06-08T12:46:04.364Z,23.5
2016-06-08T12:47:05.523Z,23.47
2016-06-08T12:48:07.494Z,23.48
2016-06-08T12:49:16.966Z,23.5
2016-06-08T12:50:14.969Z,23.47
2016-06-08T12:51:08.830Z,23.41
2016-06-08T12:52:05.770Z,23.4
2016-06-08T12:53:04.742Z,23.5
2016-06-08T12:54:04.775Z,23.44
2016-06-08T12:55:31.935Z,23.38
2016-06-08T12:56:44.658Z,23.41
2016-06-08T12:58:01.131Z,23.34
2016-06-08T12:58:49.555Z,23.34
2016-06-08T12:59:47.042Z,23.4
2016-06-08T13:00:53.358Z,23.32
2016-06-08T13:01:46.594Z,23.34
2016-06-08T13:02:52.675Z,23.35
2016-06-08T13:03:47.865Z,23.28
2016-06-08T13:04:46.727Z,23.32
2016-06-08T13:05:46.371Z,23.34
2016-06-08T13:07:41.298Z,23.38
2016-06-08T13:07:55.954Z,23.35
2016-06-08T13:08:56.925Z,23.4
2016-06-08T13:09:59.053Z,23.34
2016-06-08T13:10:56.354Z,23.34
2016-06-08T13:11:56.996Z,23.35
2016-06-08T13:12:56.967Z,23.35
2016-06-08T13:13:57.283Z,23.26
2016-06-08T13:14:56.536Z,23.41
